Big Rapids, MI

2:21 AM EST on February 26, 2017 (GMT -0500)
Roben-Hood

Weather History for KRQB - April, 2013

Change the Weather History Date:

Sunday, April 7, 2013

  Actual Average Record
Temperature  
Mean Temperature 42 °F -  
Max Temperature 52 °F 51 °F 82 °F (1991)
Min Temperature 31 °F 27 °F 1 °F (1982)
Degree Days  
Heating Degree Days 24    
Moisture  
Dew Point 35 °F    
Average Humidity 77    
Maximum Humidity 94    
Minimum Humidity 59    
Precipitation  
Precipitation 0.00 in - - ()
Sea Level Pressure  
Sea Level Pressure 29.78 in    
Wind  
Wind Speed 11 mph (West)    
Max Wind Speed 23 mph    
Max Gust Speed 34 mph    
Visibility 9 miles    
Events Rain    
Averages and records for this station are not official NWS values.
T = Trace of Precipitation, MM = Missing Value Source: NWS Daily Summary

Daily Weather History Graph

Daily Weather History Graph

Search for Another Location

Airport or City:

Trip Planner

Search our weather history database for the weather conditions in past years. The results will help you decide how hot, cold, wet, or windy it might be!

Date:

Astronomy

Apr. 07, 2013 Rise Set
Actual Time 7:12 AM EDT 8:16 PM EDT
Civil Twilight 6:43 AM EDT 8:45 PM EDT
Nautical Twilight 6:08 AM EDT 9:20 PM EDT
Astronomical Twilight 5:31 AM EDT 9:57 PM EDT
Moon 5:34 AM EDT (4/7) 5:43 PM EDT (4/7)
Length of Visible Light 14h 02m
Length of Day
13h 03m
Waning Crescent, 8% of the Moon is Illuminated
Apr 7
Waning Crescent
Apr 10
New
Apr 18
First Quarter
Apr 25
Full
May 2
Last Quarter

Hourly Weather History & Observations

Time (EDT) Temp. Windchill Dew Point Humidity Pressure Visibility Wind Dir Wind Speed Gust Speed Precip Events Conditions
12:15 AM 52.9 °F - 39.0 °F 59% 29.61 in 10.0 mi South 13.8 mph 23.0 mph N/A Rain Light Rain
12:34 AM 52.0 °F - 40.6 °F 65% 29.59 in 10.0 mi South 13.8 mph 18.4 mph N/A Rain Light Rain
12:55 AM 50.7 °F - 41.9 °F 72% 29.59 in 10.0 mi South 8.1 mph - N/A Rain Light Rain
1:15 AM 49.5 °F - 42.8 °F 78% 29.59 in 7.0 mi South 9.2 mph - N/A Rain Light Rain
1:34 AM 49.8 °F - 43.2 °F 78% 29.58 in 10.0 mi South 10.4 mph 16.1 mph N/A Rain Rain
1:55 AM 49.6 °F - 43.7 °F 80% 29.56 in 7.0 mi South 8.1 mph - N/A Rain Rain
2:15 AM 48.6 °F - 45.5 °F 89% 29.54 in 5.0 mi SSE 5.8 mph - N/A Rain Light Rain
2:34 AM 49.1 °F - 45.5 °F 87% 29.53 in 10.0 mi SSE 8.1 mph 17.3 mph N/A   Light Drizzle
2:55 AM 50.9 °F - 46.0 °F 83% 29.52 in 10.0 mi SSW 9.2 mph 19.6 mph N/A   Overcast
3:15 AM 50.9 °F - 45.1 °F 81% 29.51 in 10.0 mi SSW 10.4 mph 18.4 mph N/A Rain Light Rain
3:34 AM 50.9 °F - 45.5 °F 82% 29.51 in 7.0 mi SSW 16.1 mph 20.7 mph N/A Rain Light Rain
3:55 AM 50.4 °F - 46.4 °F 86% 29.50 in 7.0 mi SSW 12.7 mph 20.7 mph N/A Rain Light Rain
4:15 AM 50.0 °F - 46.9 °F 89% 29.49 in 10.0 mi SSW 16.1 mph 24.2 mph N/A Rain Light Rain
4:34 AM 50.0 °F - 46.9 °F 89% 29.49 in 4.0 mi SSW 13.8 mph 21.9 mph N/A Rain Rain
4:55 AM 49.5 °F - 46.9 °F 91% 29.49 in 3.0 mi SW 11.5 mph 21.9 mph N/A Rain Light Rain
5:15 AM 49.3 °F - 46.9 °F 92% 29.51 in 2.0 mi WSW 12.7 mph - N/A Rain Light Rain
5:34 AM 48.0 °F - 45.0 °F 89% 29.53 in 2.5 mi West 19.6 mph 32.2 mph N/A   Overcast
5:55 AM 46.0 °F 37.8 °F 42.1 °F 86% 29.54 in 10.0 mi West 23.0 mph 33.4 mph N/A   Overcast
6:15 AM 44.2 °F 35.4 °F 41.0 °F 88% 29.56 in 7.0 mi West 23.0 mph 34.5 mph N/A   Overcast
6:35 AM 43.2 °F 35.3 °F 40.1 °F 89% 29.57 in 5.0 mi West 17.3 mph 33.4 mph N/A   Overcast
6:55 AM 42.4 °F 34.4 °F 39.0 °F 88% 29.59 in 10.0 mi West 17.3 mph 31.1 mph N/A   Overcast
7:15 AM 41.2 °F 32.7 °F 37.9 °F 88% 29.62 in 7.0 mi West 17.3 mph 28.8 mph N/A   Overcast
7:35 AM 40.5 °F 31.2 °F 37.2 °F 88% 29.64 in 10.0 mi WNW 19.6 mph 25.3 mph N/A   Overcast
7:55 AM 40.3 °F 32.2 °F 37.0 °F 88% 29.67 in 10.0 mi WNW 15.0 mph 23.0 mph N/A   Overcast
8:15 AM 40.1 °F 31.6 °F 36.7 °F 88% 29.68 in 10.0 mi WNW 16.1 mph 21.9 mph N/A   Overcast
8:35 AM 40.1 °F 31.6 °F 36.7 °F 88% 29.69 in 10.0 mi WNW 16.1 mph 21.9 mph N/A   Overcast
8:55 AM 39.4 °F 30.7 °F 36.0 °F 88% 29.71 in 10.0 mi West 16.1 mph 19.6 mph N/A   Overcast
9:15 AM 39.2 °F 32.0 °F 35.8 °F 88% 29.72 in 10.0 mi West 11.5 mph - N/A   Overcast
9:35 AM 39.2 °F 30.8 °F 35.6 °F 87% 29.74 in 10.0 mi West 15.0 mph 21.9 mph N/A   Overcast
9:55 AM 39.2 °F 30.8 °F 34.7 °F 84% 29.75 in 10.0 mi West 15.0 mph 23.0 mph N/A   Overcast
10:15 AM 39.2 °F 32.5 °F 33.3 °F 79% 29.76 in 10.0 mi West 10.4 mph 17.3 mph N/A   Overcast
10:35 AM 39.2 °F 31.2 °F 32.5 °F 77% 29.77 in 10.0 mi West 13.8 mph - N/A   Overcast
10:55 AM 39.2 °F 31.2 °F 32.4 °F 76% 29.78 in 10.0 mi WNW 13.8 mph - N/A   Overcast
11:15 AM 39.2 °F 30.5 °F 32.5 °F 77% 29.80 in 10.0 mi WNW 16.1 mph 20.7 mph N/A   Overcast
11:35 AM 39.2 °F 31.6 °F 32.0 °F 75% 29.81 in 10.0 mi WNW 12.7 mph 24.2 mph N/A   Overcast
11:55 AM 39.2 °F 32.5 °F 32.0 °F 75% 29.83 in 10.0 mi WNW 10.4 mph 17.3 mph N/A   Overcast
12:15 PM 39.2 °F 31.6 °F 31.8 °F 75% 29.84 in 10.0 mi WNW 12.7 mph 18.4 mph N/A   Overcast
12:35 PM 39.2 °F 30.8 °F 31.1 °F 73% 29.85 in 10.0 mi WNW 15.0 mph - N/A   Overcast
12:55 PM 39.4 °F 31.8 °F 31.8 °F 74% 29.86 in 10.0 mi WNW 12.7 mph 19.6 mph N/A   Overcast
1:15 PM 39.4 °F 31.1 °F 31.1 °F 72% 29.87 in 10.0 mi WNW 15.0 mph - N/A   Overcast
1:35 PM 39.7 °F 31.9 °F 31.1 °F 71% 29.88 in 10.0 mi WNW 13.8 mph - N/A   Overcast
1:55 PM 40.1 °F 33.6 °F 30.9 °F 70% 29.89 in 10.0 mi WNW 10.4 mph - N/A   Overcast
2:14 PM 40.3 °F 32.2 °F 30.9 °F 69% 29.90 in 10.0 mi WNW 15.0 mph - N/A   Overcast
2:35 PM 41.0 °F 33.9 °F 31.1 °F 68% 29.90 in 10.0 mi WNW 12.7 mph - N/A   Overcast
2:55 PM 41.0 °F 34.7 °F 30.9 °F 67% 29.91 in 10.0 mi West 10.4 mph - N/A   Overcast
3:14 PM 41.4 °F 34.0 °F 30.7 °F 66% 29.92 in 10.0 mi West 13.8 mph 17.3 mph N/A   Overcast
3:35 PM 41.2 °F 34.5 °F 30.9 °F 67% 29.92 in 10.0 mi WNW 11.5 mph - N/A   Overcast
3:55 PM 41.4 °F 35.7 °F 30.7 °F 66% 29.93 in 10.0 mi WNW 9.2 mph - N/A   Overcast
4:15 PM 41.9 °F 35.0 °F 30.9 °F 65% 29.93 in 10.0 mi West 12.7 mph - N/A   Overcast
4:35 PM 41.9 °F 36.3 °F 30.4 °F 64% 29.94 in 10.0 mi WNW 9.2 mph - N/A   Overcast
4:55 PM 41.9 °F 37.5 °F 30.7 °F 65% 29.94 in 10.0 mi NNW 6.9 mph - N/A   Overcast
5:15 PM 41.5 °F 35.4 °F 30.6 °F 65% 29.95 in 10.0 mi NNW 10.4 mph - N/A   Overcast
5:35 PM 41.5 °F 37.1 °F 30.9 °F 66% 29.96 in 10.0 mi NW 6.9 mph - N/A   Overcast
5:55 PM 41.5 °F 36.4 °F 29.7 °F 63% 29.96 in 10.0 mi WNW 8.1 mph - N/A   Overcast
6:15 PM 41.9 °F 37.5 °F 29.7 °F 62% 29.97 in 10.0 mi West 6.9 mph - N/A   Overcast
6:35 PM 41.5 °F 37.8 °F 30.6 °F 65% 29.96 in 10.0 mi NNW 5.8 mph - N/A   Overcast
6:55 PM 41.0 °F 39.0 °F 29.8 °F 64% 29.96 in 10.0 mi NNE 3.5 mph - N/A   Overcast
7:15 PM 41.0 °F 39.0 °F 29.8 °F 64% 29.96 in 10.0 mi North 3.5 mph - N/A   Overcast
7:35 PM 41.0 °F 39.0 °F 30.0 °F 65% 29.98 in 10.0 mi North 3.5 mph - N/A   Overcast
7:55 PM 41.0 °F - 29.8 °F 64% 29.98 in 10.0 mi Calm Calm - N/A   Overcast
8:15 PM 40.6 °F - 29.7 °F 65% 29.98 in 10.0 mi Calm Calm - N/A   Overcast
8:35 PM 40.3 °F - 29.8 °F 66% 29.98 in 10.0 mi Calm Calm - N/A   Overcast
8:55 PM 40.1 °F - 30.2 °F 68% 29.98 in 10.0 mi Calm Calm - N/A   Overcast
9:15 PM 39.6 °F 37.4 °F 30.7 °F 71% 29.99 in 10.0 mi ENE 3.5 mph - N/A   Overcast
9:35 PM 39.2 °F 37.0 °F 30.4 °F 71% 30.00 in 10.0 mi NNE 3.5 mph - N/A   Overcast
9:55 PM 39.0 °F - 30.6 °F 72% 30.01 in 10.0 mi Calm Calm - N/A   Overcast
10:15 PM 38.3 °F - 30.0 °F 72% 30.01 in 10.0 mi Calm Calm - N/A   Mostly Cloudy
10:35 PM 37.0 °F - 29.5 °F 74% 30.01 in 10.0 mi Calm Calm - N/A   Clear
10:55 PM 33.3 °F - 28.9 °F 84% 30.01 in 10.0 mi Calm Calm - N/A   Clear
11:15 PM 32.5 °F - 30.7 °F 93% 30.01 in 10.0 mi Calm Calm - N/A   Clear
11:35 PM 31.8 °F - 30.0 °F 93% 30.00 in 10.0 mi Calm Calm - N/A   Clear
11:55 PM 31.6 °F - 30.0 °F 94% 30.00 in 10.0 mi Calm Calm - N/A   Clear